createdAt,value
2023-02-24T00:02:27.118Z,21.53
2023-02-24T00:05:01.258Z,22.33
2023-02-24T00:07:38.031Z,24.23
2023-02-24T00:10:07.444Z,22.53
2023-02-24T00:12:44.439Z,20.87
2023-02-24T00:15:16.649Z,22.63
2023-02-24T00:17:48.360Z,21.43
2023-02-24T00:20:33.557Z,23.00
2023-02-24T00:23:04.544Z,22.47
2023-02-24T00:25:37.476Z,22.97
2023-02-24T00:28:07.585Z,24.70
2023-02-24T00:30:39.760Z,22.63
2023-02-24T00:33:14.943Z,22.03
2023-02-24T00:35:47.119Z,23.23
2023-02-24T00:38:18.609Z,23.00
2023-02-24T00:40:48.086Z,22.90
2023-02-24T00:43:19.070Z,24.37
2023-02-24T00:45:52.230Z,23.70
2023-02-24T00:48:24.782Z,23.27
2023-02-24T00:51:08.756Z,26.83
2023-02-24T00:53:39.819Z,26.43
2023-02-24T00:56:13.336Z,24.63
2023-02-24T00:58:47.375Z,23.40
2023-02-24T01:01:22.039Z,25.07
2023-02-24T01:03:54.830Z,24.40
2023-02-24T01:06:43.529Z,23.33
2023-02-24T01:09:13.778Z,25.33
2023-02-24T01:12:05.616Z,23.13
2023-02-24T01:14:41.288Z,24.23
2023-02-24T01:17:22.284Z,25.07
2023-02-24T01:19:53.194Z,26.80
2023-02-24T01:22:29.463Z,24.10
2023-02-24T01:24:58.751Z,25.13
2023-02-24T01:27:33.865Z,25.40
2023-02-24T01:30:16.544Z,25.40
2023-02-24T01:32:50.557Z,24.73
2023-02-24T01:35:20.089Z,25.20
2023-02-24T01:38:08.394Z,25.30
2023-02-24T01:40:38.736Z,23.53
2023-02-24T01:43:10.875Z,26.57
2023-02-24T01:45:43.171Z,25.53
2023-02-24T01:48:11.501Z,26.23
2023-02-24T01:50:42.581Z,26.67
2023-02-24T01:53:24.481Z,27.10
2023-02-24T01:55:54.525Z,25.93
2023-02-24T01:58:27.078Z,25.20
2023-02-24T02:01:06.946Z,26.80
2023-02-24T02:07:46.841Z,26.90
2023-02-24T02:10:35.138Z,27.23
2023-02-24T02:13:06.522Z,28.63
2023-02-24T02:15:45.782Z,26.57
2023-02-24T02:18:22.542Z,28.43
2023-02-24T02:21:32.944Z,27.40
2023-02-24T02:24:35.044Z,27.20
2023-02-24T02:27:42.686Z,27.30
2023-02-24T02:30:55.588Z,25.83
2023-02-24T02:33:50.664Z,24.83
2023-02-24T02:36:36.892Z,24.47
2023-02-24T02:39:13.433Z,25.60
2023-02-24T02:42:02.717Z,26.17
2023-02-24T02:44:40.785Z,24.87
2023-02-24T02:47:26.206Z,25.67
2023-02-24T02:50:08.291Z,25.23
2023-02-24T02:52:46.434Z,25.97
2023-02-24T02:55:21.745Z,25.07
2023-02-24T02:57:55.226Z,25.23
2023-02-24T03:00:29.305Z,25.43
2023-02-24T03:03:05.005Z,26.70
2023-02-24T03:05:46.638Z,24.10
2023-02-24T03:08:33.613Z,25.87
2023-02-24T03:11:05.633Z,26.53
2023-02-24T03:13:43.535Z,25.57
2023-02-24T03:16:14.672Z,24.77
2023-02-24T03:18:51.086Z,24.43
2023-02-24T03:21:31.170Z,25.20
2023-02-24T03:24:08.054Z,24.30
2023-02-24T03:26:45.611Z,24.90
2023-02-24T03:29:23.828Z,25.00
2023-02-24T03:32:03.680Z,23.97
2023-02-24T03:34:57.575Z,25.40
2023-02-24T03:37:29.217Z,24.63
2023-02-24T03:40:11.981Z,25.47
2023-02-24T03:42:45.359Z,25.23
2023-02-24T03:45:18.325Z,23.43
2023-02-24T03:47:56.168Z,26.20
2023-02-24T03:50:31.964Z,26.10
2023-02-24T03:53:17.745Z,25.20
2023-02-24T03:55:59.882Z,24.67
2023-02-24T03:58:43.069Z,25.97
2023-02-24T04:01:18.231Z,25.53
2023-02-24T04:03:54.371Z,26.57
2023-02-24T04:06:38.366Z,25.73
2023-02-24T04:09:16.736Z,25.83
2023-02-24T04:12:27.689Z,25.23
2023-02-24T04:15:09.191Z,25.40
2023-02-24T04:17:42.381Z,25.40
2023-02-24T04:20:15.817Z,25.77
2023-02-24T04:22:58.771Z,25.63
2023-02-24T04:25:28.836Z,26.27
2023-02-24T04:28:05.235Z,27.33
2023-02-24T04:30:37.091Z,29.27
2023-02-24T04:33:10.169Z,30.47
2023-02-24T04:35:41.983Z,30.17
2023-02-24T04:38:18.770Z,29.37
2023-02-24T04:40:49.721Z,29.37
2023-02-24T04:43:29.530Z,30.47
2023-02-24T04:45:57.781Z,30.30
2023-02-24T04:48:27.498Z,28.97
2023-02-24T04:50:56.061Z,30.60
2023-02-24T04:53:29.936Z,30.60
2023-02-24T04:55:58.687Z,29.70
2023-02-24T04:58:29.657Z,29.77
2023-02-24T05:01:03.692Z,28.43
2023-02-24T05:03:35.219Z,29.27
2023-02-24T05:06:06.730Z,31.37
2023-02-24T05:08:36.440Z,30.00
2023-02-24T05:11:08.310Z,31.50
2023-02-24T05:13:53.878Z,30.97
2023-02-24T05:16:23.229Z,29.47
2023-02-24T05:19:19.508Z,30.90
2023-02-24T05:21:49.122Z,30.70
2023-02-24T05:24:20.939Z,31.60
2023-02-24T05:26:58.497Z,32.37
2023-02-24T05:29:41.247Z,31.07
2023-02-24T05:32:18.504Z,30.77
2023-02-24T05:34:49.530Z,28.43
2023-02-24T05:37:30.159Z,30.00
2023-02-24T05:40:01.937Z,30.20
2023-02-24T05:42:35.219Z,31.50
2023-02-24T05:45:09.124Z,29.60
2023-02-24T05:47:45.584Z,30.60
2023-02-24T05:50:14.577Z,29.10
2023-02-24T05:52:45.913Z,28.10
2023-02-24T05:55:19.495Z,28.40
2023-02-24T05:57:53.783Z,28.70
2023-02-24T06:00:27.060Z,28.30
2023-02-24T06:03:08.560Z,30.10
2023-02-24T06:05:42.773Z,29.50
2023-02-24T06:08:13.075Z,28.50
2023-02-24T06:10:42.358Z,30.53
2023-02-24T06:13:14.327Z,29.70
2023-02-24T06:15:50.437Z,27.00
2023-02-24T06:18:22.421Z,28.93
2023-02-24T06:20:56.404Z,26.90
2023-02-24T06:23:27.796Z,29.37
2023-02-24T06:25:59.644Z,28.67
2023-02-24T06:28:29.437Z,30.50
2023-02-24T06:31:07.033Z,30.63
2023-02-24T06:33:46.255Z,30.80
2023-02-24T06:36:19.271Z,32.20
2023-02-24T06:38:52.776Z,32.00
2023-02-24T06:41:30.576Z,30.37
2023-02-24T06:44:02.317Z,31.73
2023-02-24T06:46:33.262Z,30.70
2023-02-24T06:49:10.322Z,30.40
2023-02-24T06:51:41.269Z,29.37
2023-02-24T06:54:11.206Z,29.20
2023-02-24T06:56:43.473Z,30.10
2023-02-24T06:59:18.802Z,30.00
2023-02-24T07:01:50.077Z,29.57
2023-02-24T07:04:21.447Z,29.07
2023-02-24T07:06:57.118Z,28.80
2023-02-24T07:09:28.490Z,28.37
2023-02-24T07:12:02.806Z,29.00
2023-02-24T07:14:32.668Z,29.87
2023-02-24T07:17:03.818Z,29.30
2023-02-24T07:19:35.731Z,26.97
2023-02-24T07:22:04.395Z,27.20
2023-02-24T07:24:46.448Z,29.80
2023-02-24T07:27:29.923Z,28.67
2023-02-24T07:30:06.653Z,27.23
2023-02-24T07:32:49.488Z,28.80
2023-02-24T07:35:20.399Z,28.87
2023-02-24T07:37:51.898Z,27.40
2023-02-24T07:40:23.246Z,29.57
2023-02-24T07:42:54.860Z,28.07
2023-02-24T07:45:24.941Z,28.23
2023-02-24T07:48:03.776Z,28.73
2023-02-24T07:50:38.024Z,26.70
2023-02-24T07:53:12.636Z,29.10
2023-02-24T07:55:42.201Z,28.50
2023-02-24T07:58:22.461Z,27.17
2023-02-24T08:01:01.959Z,27.47
2023-02-24T08:03:41.358Z,25.73
2023-02-24T08:06:15.744Z,25.93
2023-02-24T08:09:00.368Z,26.50
2023-02-24T08:11:35.838Z,26.37
2023-02-24T08:14:08.679Z,25.03
2023-02-24T08:16:40.827Z,25.70
2023-02-24T08:19:15.034Z,25.30
2023-02-24T08:21:47.706Z,25.03
2023-02-24T08:24:22.352Z,24.93
2023-02-24T08:27:04.544Z,24.40
2023-02-24T08:29:40.408Z,25.57
2023-02-24T08:32:11.004Z,22.90
2023-02-24T08:34:50.112Z,25.60
2023-02-24T08:37:18.809Z,26.10
2023-02-24T08:39:47.296Z,24.17
2023-02-24T08:42:19.475Z,25.50
2023-02-24T08:44:55.865Z,24.40
2023-02-24T08:47:41.529Z,25.17
2023-02-24T08:50:30.484Z,25.40
2023-02-24T08:53:01.207Z,22.63
2023-02-24T08:55:34.855Z,23.80
2023-02-24T08:58:04.602Z,23.57
2023-02-24T09:00:49.523Z,23.43
2023-02-24T09:03:28.100Z,23.13
2023-02-24T09:06:09.353Z,21.40
2023-02-24T09:08:43.720Z,22.33
2023-02-24T09:11:15.483Z,22.20
2023-02-24T09:14:01.753Z,21.30
2023-02-24T09:16:35.786Z,21.13
2023-02-24T09:19:42.852Z,21.80
2023-02-24T09:22:57.446Z,21.20
2023-02-24T09:25:40.953Z,21.00
2023-02-24T09:28:19.305Z,19.97
2023-02-24T09:30:55.338Z,20.03
2023-02-24T09:33:28.302Z,20.60
2023-02-24T09:36:10.694Z,19.97
2023-02-24T09:39:14.888Z,20.50
2023-02-24T09:41:57.159Z,20.23
2023-02-24T09:44:34.623Z,20.17
2023-02-24T09:47:24.525Z,19.83
2023-02-24T09:50:02.001Z,20.93
2023-02-24T09:52:44.311Z,18.53
2023-02-24T09:55:46.293Z,19.90
2023-02-24T09:58:34.755Z,17.57
2023-02-24T10:01:33.420Z,17.23
2023-02-24T10:04:25.320Z,19.20
2023-02-24T10:07:05.422Z,17.07
2023-02-24T10:09:39.584Z,17.17
2023-02-24T10:12:21.625Z,16.30
2023-02-24T10:15:05.639Z,16.97
2023-02-24T10:17:40.586Z,17.67
2023-02-24T10:20:31.309Z,15.90
2023-02-24T10:23:04.927Z,16.43
2023-02-24T10:25:54.261Z,16.97
2023-02-24T10:28:46.099Z,17.43
2023-02-24T10:31:33.303Z,15.40
2023-02-24T10:34:06.518Z,15.20
2023-02-24T10:36:50.442Z,14.13
2023-02-24T10:39:41.300Z,13.60
2023-02-24T10:42:25.074Z,15.13
2023-02-24T10:45:17.223Z,12.40
2023-02-24T10:47:59.053Z,14.93
2023-02-24T10:50:54.979Z,13.83
2023-02-24T10:53:34.691Z,12.97
2023-02-24T10:56:30.944Z,13.33
2023-02-24T10:59:35.575Z,12.80
2023-02-24T11:02:32.987Z,13.30
2023-02-24T11:05:29.756Z,13.23
2023-02-24T11:08:28.931Z,12.40
2023-02-24T11:11:07.335Z,11.03
2023-02-24T11:13:58.637Z,10.67
2023-02-24T11:16:52.715Z,11.13
2023-02-24T11:19:46.092Z,10.37
2023-02-24T11:22:20.679Z,10.87
2023-02-24T11:24:54.319Z,9.80
2023-02-24T11:27:34.074Z,10.00
2023-02-24T11:30:23.271Z,9.40
2023-02-24T11:33:17.807Z,8.33
2023-02-24T11:36:07.654Z,8.83
2023-02-24T11:38:44.154Z,9.37
2023-02-24T11:41:24.536Z,9.03
2023-02-24T11:44:00.141Z,9.30
2023-02-24T11:46:40.743Z,9.40
2023-02-24T11:49:23.311Z,7.97
2023-02-24T11:51:57.059Z,8.30
2023-02-24T11:54:29.993Z,9.07
2023-02-24T11:56:59.454Z,7.80
2023-02-24T11:59:37.206Z,8.10
2023-02-24T12:02:21.097Z,8.13
2023-02-24T12:05:00.721Z,6.80
2023-02-24T12:07:38.883Z,5.53
2023-02-24T12:10:18.520Z,5.80
2023-02-24T12:12:50.950Z,5.40
2023-02-24T12:15:25.794Z,4.77
2023-02-24T12:18:05.430Z,5.40
2023-02-24T12:20:41.794Z,4.00
2023-02-24T12:23:21.108Z,4.40
2023-02-24T12:26:13.202Z,4.40
2023-02-24T12:29:16.285Z,4.30
2023-02-24T12:32:00.118Z,3.70
2023-02-24T12:34:42.078Z,3.97
2023-02-24T12:37:39.011Z,4.27
2023-02-24T12:40:20.083Z,4.47
2023-02-24T12:42:55.719Z,4.00
2023-02-24T12:45:33.253Z,4.50
2023-02-24T12:48:12.171Z,6.50
2023-02-24T12:50:51.827Z,6.60
2023-02-24T12:53:27.302Z,7.00
2023-02-24T12:56:19.327Z,8.40
2023-02-24T12:58:52.565Z,9.27
2023-02-24T13:01:28.037Z,10.90
2023-02-24T13:04:15.669Z,10.93
2023-02-24T13:07:02.733Z,11.40
2023-02-24T13:09:44.360Z,11.27
2023-02-24T13:12:24.261Z,12.13
2023-02-24T13:14:52.620Z,10.57
2023-02-24T13:17:30.330Z,11.73
2023-02-24T13:20:13.755Z,10.90
2023-02-24T13:22:44.748Z,10.97
2023-02-24T13:25:24.140Z,10.67
2023-02-24T13:28:29.166Z,11.00
2023-02-24T13:31:04.262Z,11.13
2023-02-24T13:33:37.532Z,10.40
2023-02-24T13:36:42.317Z,10.50
2023-02-24T13:39:26.760Z,9.30
2023-02-24T13:42:07.614Z,11.27
2023-02-24T13:44:54.091Z,13.93
2023-02-24T13:47:53.021Z,11.20
2023-02-24T13:50:28.818Z,6.60
2023-02-24T13:53:35.984Z,4.90
2023-02-24T13:56:24.899Z,3.93
2023-02-24T13:59:01.686Z,3.93
2023-02-24T14:01:53.506Z,3.80
2023-02-24T14:04:33.619Z,28.90
2023-02-24T14:07:05.189Z,15.90
2023-02-24T14:09:35.847Z,11.00
2023-02-24T14:12:15.357Z,8.33
2023-02-24T14:14:53.114Z,5.10
2023-02-24T14:17:30.419Z,4.43
2023-02-24T14:20:11.335Z,3.73
2023-02-24T14:22:47.592Z,5.17
2023-02-24T14:25:24.293Z,5.30
2023-02-24T14:28:00.105Z,4.10
2023-02-24T14:30:35.562Z,4.07
2023-02-24T14:33:23.365Z,4.70
2023-02-24T14:35:51.447Z,4.93
2023-02-24T14:38:39.804Z,4.90
2023-02-24T14:41:22.931Z,5.27
2023-02-24T14:43:54.872Z,4.30
2023-02-24T14:46:25.659Z,4.53
2023-02-24T14:49:01.977Z,4.73
2023-02-24T14:51:34.261Z,5.07
2023-02-24T14:54:09.631Z,5.13
2023-02-24T14:56:44.060Z,5.00
2023-02-24T14:59:24.566Z,5.20
2023-02-24T15:02:05.146Z,5.57
2023-02-24T15:04:44.923Z,4.73
2023-02-24T15:07:21.080Z,5.63
2023-02-24T15:09:52.854Z,5.97
2023-02-24T15:12:29.347Z,5.40
2023-02-24T15:15:09.980Z,5.23
2023-02-24T15:17:40.918Z,6.07
2023-02-24T15:20:32.748Z,5.10
2023-02-24T15:23:05.574Z,5.93
2023-02-24T15:25:44.616Z,6.23
2023-02-24T15:28:25.990Z,6.50
2023-02-24T15:31:05.194Z,6.37
2023-02-24T15:33:43.707Z,5.73
2023-02-24T15:36:23.998Z,6.67
2023-02-24T15:38:55.000Z,5.47
2023-02-24T15:41:32.055Z,5.80
2023-02-24T15:44:04.200Z,6.40
2023-02-24T15:46:36.316Z,5.63
2023-02-24T15:49:07.064Z,6.40
2023-02-24T15:51:41.970Z,6.90
2023-02-24T15:54:17.480Z,6.10
2023-02-24T15:56:55.100Z,6.07
2023-02-24T15:59:37.020Z,6.30
2023-02-24T16:02:20.307Z,6.87
2023-02-24T16:04:50.805Z,7.57
2023-02-24T16:07:37.404Z,5.60
2023-02-24T16:10:14.629Z,6.77
2023-02-24T16:12:49.637Z,5.90
2023-02-24T16:15:26.523Z,6.70
2023-02-24T16:17:57.831Z,6.60
2023-02-24T16:20:40.572Z,5.70
2023-02-24T16:23:16.849Z,6.10
2023-02-24T16:25:52.419Z,7.23
2023-02-24T16:28:28.868Z,6.47
2023-02-24T16:31:05.269Z,5.90
2023-02-24T16:33:51.709Z,6.07
2023-02-24T16:36:29.300Z,6.70
2023-02-24T16:39:06.102Z,6.10
2023-02-24T16:41:44.187Z,6.20
2023-02-24T16:44:17.235Z,6.13
2023-02-24T16:46:57.338Z,6.50
2023-02-24T16:49:27.654Z,7.30
2023-02-24T16:51:57.980Z,7.57
2023-02-24T16:54:35.676Z,6.87
2023-02-24T16:57:12.675Z,5.53
2023-02-24T16:59:41.591Z,7.57
2023-02-24T17:02:30.994Z,6.50
2023-02-24T17:05:03.858Z,7.23
2023-02-24T17:07:45.879Z,7.23
2023-02-24T17:10:24.964Z,7.00
2023-02-24T17:12:55.041Z,6.73
2023-02-24T17:15:27.750Z,7.33
2023-02-24T17:17:57.693Z,8.07
2023-02-24T17:20:30.083Z,7.77
2023-02-24T17:22:59.640Z,8.33
2023-02-24T17:25:43.823Z,10.37
2023-02-24T17:28:20.590Z,11.63
2023-02-24T17:30:54.386Z,10.00
2023-02-24T17:33:25.123Z,7.90
2023-02-24T17:36:01.160Z,7.90
2023-02-24T17:38:32.226Z,6.70
2023-02-24T17:41:03.843Z,8.00
2023-02-24T17:43:36.370Z,9.57
2023-02-24T17:46:08.585Z,8.57
2023-02-24T17:48:38.031Z,8.53
2023-02-24T17:51:14.375Z,9.60
2023-02-24T17:53:47.774Z,7.43
2023-02-24T17:56:21.937Z,7.53
2023-02-24T17:59:10.902Z,8.53
2023-02-24T18:01:46.758Z,8.07
2023-02-24T18:04:21.356Z,8.30
2023-02-24T18:06:56.129Z,8.10
2023-02-24T18:09:35.476Z,8.73
2023-02-24T18:12:28.338Z,7.97
2023-02-24T18:15:08.376Z,8.00
2023-02-24T18:17:41.013Z,8.70
2023-02-24T18:20:12.436Z,9.20
2023-02-24T18:22:50.142Z,8.17
2023-02-24T18:25:30.029Z,7.80
2023-02-24T18:28:06.695Z,8.57
2023-02-24T18:30:48.911Z,8.43
2023-02-24T18:33:29.171Z,8.93
2023-02-24T18:36:07.698Z,9.47
2023-02-24T18:38:39.368Z,9.73
2023-02-24T18:41:14.978Z,10.03
2023-02-24T18:43:58.519Z,9.80
2023-02-24T18:46:28.377Z,11.50
2023-02-24T18:49:12.384Z,9.60
2023-02-24T18:51:48.243Z,8.10
2023-02-24T18:54:25.994Z,8.80
2023-02-24T18:57:00.418Z,8.60
2023-02-24T18:59:47.277Z,7.70
2023-02-24T19:02:28.336Z,10.77
2023-02-24T19:05:00.474Z,10.33
2023-02-24T19:07:31.553Z,11.40
2023-02-24T19:10:18.773Z,10.60
2023-02-24T19:13:02.904Z,9.37
2023-02-24T19:15:39.078Z,8.90
2023-02-24T19:18:21.038Z,9.17
2023-02-24T19:20:54.977Z,7.77
2023-02-24T19:23:30.241Z,9.30
2023-02-24T19:26:12.564Z,11.50
2023-02-24T19:28:44.481Z,12.10
2023-02-24T19:31:24.881Z,10.87
2023-02-24T19:33:55.814Z,10.40
2023-02-24T19:36:43.566Z,10.57
2023-02-24T19:39:20.254Z,10.40
2023-02-24T19:41:53.308Z,10.87
2023-02-24T19:44:23.284Z,11.57
2023-02-24T19:47:07.895Z,11.50
2023-02-24T19:49:40.957Z,11.20
2023-02-24T19:52:14.498Z,10.23
2023-02-24T19:54:53.776Z,10.73
2023-02-24T19:57:34.321Z,11.47
2023-02-24T20:00:12.080Z,11.37
2023-02-24T20:02:56.636Z,12.00
2023-02-24T20:05:32.687Z,12.10
2023-02-24T20:08:06.969Z,11.57
2023-02-24T20:10:46.033Z,11.10
2023-02-24T20:13:24.619Z,11.60
2023-02-24T20:16:10.190Z,11.43
2023-02-24T20:18:48.520Z,11.50
2023-02-24T20:21:20.110Z,14.60
2023-02-24T20:24:01.435Z,11.00
2023-02-24T20:26:34.378Z,11.50
2023-02-24T20:29:07.468Z,9.97
2023-02-24T20:31:38.845Z,9.67
2023-02-24T20:34:25.661Z,9.37
2023-02-24T20:37:09.714Z,8.00
2023-02-24T20:39:47.556Z,6.90
2023-02-24T20:42:28.629Z,5.93
2023-02-24T20:45:11.486Z,5.87
2023-02-24T20:47:42.422Z,5.67
2023-02-24T20:50:20.770Z,5.03
2023-02-24T20:52:59.632Z,5.30
2023-02-24T20:55:31.759Z,4.67
2023-02-24T20:58:13.205Z,5.20
2023-02-24T21:00:48.332Z,4.50
2023-02-24T21:03:33.198Z,4.73
2023-02-24T21:06:20.912Z,4.50
2023-02-24T21:08:55.649Z,3.77
2023-02-24T21:11:27.438Z,3.97
2023-02-24T21:14:05.853Z,5.43
2023-02-24T21:16:37.004Z,4.70
2023-02-24T21:19:24.225Z,4.60
2023-02-24T21:22:04.774Z,4.13
2023-02-24T21:24:33.578Z,4.30
2023-02-24T21:27:06.079Z,3.23
2023-02-24T21:29:38.276Z,3.23
2023-02-24T21:32:08.392Z,3.67
2023-02-24T21:34:43.048Z,2.70
2023-02-24T21:37:20.396Z,3.93
2023-02-24T21:39:53.813Z,3.20
2023-02-24T21:42:24.680Z,2.87
2023-02-24T21:44:57.558Z,2.87
2023-02-24T21:47:34.594Z,2.70
2023-02-24T21:50:04.814Z,3.80
2023-02-24T21:52:38.797Z,3.30
2023-02-24T21:55:09.489Z,3.27
2023-02-24T21:57:42.306Z,3.10
2023-02-24T22:00:20.820Z,2.97
2023-02-24T22:02:56.924Z,3.70
2023-02-24T22:05:29.158Z,3.73
2023-02-24T22:08:05.600Z,2.87
2023-02-24T22:10:39.700Z,3.27
2023-02-24T22:13:13.814Z,4.10
2023-02-24T22:15:52.610Z,3.10
2023-02-24T22:18:35.905Z,3.40
2023-02-24T22:21:14.698Z,3.07
2023-02-24T22:23:52.316Z,3.53
2023-02-24T22:26:25.539Z,3.17
2023-02-24T22:29:04.473Z,3.23
2023-02-24T22:31:49.390Z,4.00
2023-02-24T22:34:24.458Z,2.40
2023-02-24T22:36:53.874Z,3.07
2023-02-24T22:39:28.244Z,2.90
2023-02-24T22:41:59.028Z,2.57
2023-02-24T22:44:35.266Z,3.33
2023-02-24T22:47:09.239Z,3.33
2023-02-24T22:49:41.242Z,3.00
2023-02-24T22:52:15.183Z,3.17
2023-02-24T22:54:56.680Z,2.87
2023-02-24T22:57:36.457Z,2.93
2023-02-24T23:00:10.825Z,4.13
2023-02-24T23:02:39.856Z,3.40
2023-02-24T23:05:11.572Z,3.67
2023-02-24T23:07:40.466Z,4.07
2023-02-24T23:10:23.708Z,2.70
2023-02-24T23:12:53.090Z,3.33
2023-02-24T23:15:28.663Z,3.40
2023-02-24T23:18:00.312Z,4.40
2023-02-24T23:20:39.001Z,3.60
2023-02-24T23:23:15.635Z,2.97
2023-02-24T23:26:01.079Z,3.43
2023-02-24T23:28:41.172Z,2.57
2023-02-24T23:31:10.648Z,2.87
2023-02-24T23:33:41.305Z,2.43
2023-02-24T23:36:11.025Z,2.80
2023-02-24T23:38:41.596Z,2.07
2023-02-24T23:41:13.561Z,2.50
2023-02-24T23:43:45.624Z,2.70
2023-02-24T23:46:22.570Z,2.33
2023-02-24T23:48:57.488Z,2.20
2023-02-24T23:51:35.767Z,1.90
2023-02-24T23:54:14.013Z,1.97
2023-02-24T23:56:53.927Z,2.50
2023-02-24T23:59:28.356Z,1.90
